Time;durP1;ratioP1;P1;durP2;ratioP2;P2;SDS_P1;SDS_P2;PMS_P1;PMS_P2;Temp;Humidity;BMP_temperature;BMP_pressure;BME280_temperature;BME280_humidity;BME280_pressure;Samples;Min_cycle;Max_cycle;Signal;HPM_P1;HPM_P2
2022/05/24 00:02:18;;;;;;;10.00;5.40;;;;;;;9.90;70.83;98368.86;4260123;82;21053;-83
2022/05/24 00:08:31;;;;;;;8.63;5.47;;;;;;;9.91;70.97;98379.98;4255754;82;21024;-82
2022/05/24 00:21:00;;;;;;;7.50;5.03;;;;;;;9.91;71.69;98373.95;4249794;82;21115;-81
2022/05/24 00:27:08;;;;;;;8.93;5.22;;;;;;;9.93;71.98;98374.32;4253749;82;21529;-82
2022/05/24 00:33:18;;;;;;;8.08;5.35;;;;;;;9.95;72.07;98371.20;4256247;82;21033;-82
2022/05/24 00:39:19;;;;;;;9.10;5.53;;;;;;;9.92;72.16;98365.93;4272374;82;21671;-82
2022/05/24 00:45:38;;;;;;;8.30;5.83;;;;;;;9.91;72.91;98369.05;4254200;82;21005;-82
2022/05/24 00:51:50;;;;;;;12.68;6.40;;;;;;;9.92;72.77;98374.70;4260205;82;21083;-82
2022/05/24 00:58:07;;;;;;;7.40;5.28;;;;;;;9.89;72.74;98358.50;4256326;82;21529;-82
2022/05/24 01:04:13;;;;;;;9.43;6.43;;;;;;;9.88;73.00;98349.32;4249172;82;21604;-84
2022/05/24 01:10:32;;;;;;;6.67;3.87;;;;;;;9.84;73.37;98342.47;4257338;82;21017;-82
2022/05/24 01:16:46;;;;;;;8.00;5.70;;;;;;;9.84;73.55;98332.90;4232839;82;21088;-83
2022/05/24 01:23:22;;;;;;;7.20;5.37;;;;;;;9.83;73.61;98331.92;4208130;83;21536;-82
2022/05/24 01:29:40;;;;;;;7.20;5.37;;;;;;;9.81;74.06;98332.87;4212867;83;21026;-83
2022/05/24 01:42:11;;;;;;;9.40;6.37;;;;;;;9.80;74.62;98324.49;4216100;83;21071;-82
2022/05/24 01:48:20;;;;;;;8.45;6.10;;;;;;;9.82;74.83;98318.06;4219531;83;22040;-82
2022/05/24 01:54:24;;;;;;;7.90;6.25;;;;;;;9.87;75.01;98310.83;4201174;83;21029;-82
2022/05/24 02:00:33;;;;;;;9.90;6.42;;;;;;;9.87;74.92;98303.42;4220196;83;22027;-82
2022/05/24 02:07:04;;;;;;;8.20;6.10;;;;;;;9.86;75.14;98310.64;4203408;83;21839;-83
2022/05/24 02:13:19;;;;;;;7.10;5.80;;;;;;;9.86;75.18;98307.91;4155493;84;21080;-82
2022/05/24 02:19:35;;;;;;;9.60;6.65;;;;;;;9.84;75.51;98304.77;4150225;84;20995;-82
2022/05/24 02:25:56;;;;;;;9.80;6.40;;;;;;;9.84;75.72;98304.77;4150440;83;30594;-82
2022/05/24 02:31:58;;;;;;;6.78;5.30;;;;;;;9.81;75.79;98287.78;4228309;82;21041;-82
2022/05/24 02:38:16;;;;;;;12.55;6.87;;;;;;;9.79;76.28;98288.16;4218859;83;21539;-82
2022/05/24 02:45:02;;;;;;;9.25;6.17;;;;;;;9.81;76.03;98288.57;4163863;82;21109;-82
2022/05/24 02:51:36;;;;;;;8.80;6.10;;;;;;;9.77;76.43;98287.00;4211998;82;21521;-83
2022/05/24 03:04:45;;;;;;;9.10;6.25;;;;;;;9.74;76.66;98273.50;4217999;82;21444;-83
2022/05/24 03:10:51;;;;;;;9.28;5.90;;;;;;;9.72;76.75;98274.50;4222093;81;21526;-83
2022/05/24 03:30:44;;;;;;;9.38;6.40;;;;;;;9.74;77.22;98272.74;4334800;80;22154;-83
2022/05/24 03:36:54;;;;;;;6.37;5.72;;;;;;;9.76;77.23;98273.91;4308184;80;21648;-82
2022/05/24 03:42:55;;;;;;;9.03;6.03;;;;;;;9.79;77.60;98275.87;4329782;80;20970;-83
2022/05/24 03:49:06;;;;;;;9.28;6.60;;;;;;;9.80;77.62;98270.62;4337037;80;20966;-83
2022/05/24 03:55:22;;;;;;;9.10;6.72;;;;;;;9.83;77.64;98282.14;4345432;79;21057;-83
2022/05/24 04:01:27;;;;;;;9.65;6.58;;;;;;;9.86;77.67;98282.73;4332619;80;21023;-83
2022/05/24 04:07:29;;;;;;;13.75;6.67;;;;;;;9.90;77.98;98285.48;4329972;80;21482;-83
2022/05/24 04:13:43;;;;;;;8.60;6.90;;;;;;;9.96;78.12;98275.12;4323125;80;21030;-83
2022/05/24 04:26:49;;;;;;;9.18;6.70;;;;;;;10.12;78.79;98280.26;4335201;80;21095;-84
2022/05/24 04:46:13;;;;;;;11.18;7.20;;;;;;;10.36;78.51;98289.88;4332722;80;21003;-83
2022/05/24 04:52:26;;;;;;;9.83;7.25;;;;;;;10.48;78.56;98301.00;4330204;79;21053;-84
2022/05/24 04:58:54;;;;;;;8.78;6.65;;;;;;;10.53;78.62;98308.25;4333978;80;21014;-83
2022/05/24 05:12:30;;;;;;;10.88;7.17;;;;;;;10.75;78.81;98305.71;4345864;80;21074;-82
2022/05/24 05:18:32;;;;;;;7.83;6.30;;;;;;;10.86;78.72;98312.53;4341286;80;20994;-84
2022/05/24 05:24:35;;;;;;;7.20;6.15;;;;;;;10.97;78.95;98313.31;4350111;80;22109;-85
2022/05/24 05:37:10;;;;;;;10.82;6.90;;;;;;;11.25;79.01;98305.61;4344323;79;21017;-83
2022/05/24 05:43:19;;;;;;;11.38;6.80;;;;;;;11.42;78.88;98304.78;4346733;80;21037;-84
2022/05/24 05:49:32;;;;;;;7.78;6.45;;;;;;;11.56;78.94;98297.91;4329670;80;21455;-83
2022/05/24 05:55:48;;;;;;;8.73;6.62;;;;;;;11.73;79.06;98298.44;4275348;80;37002;-83
2022/05/24 06:01:49;;;;;;;10.43;5.97;;;;;;;11.88;78.93;98308.95;4176201;83;21543;-83
2022/05/24 06:08:13;;;;;;;11.48;6.17;;;;;;;12.02;79.12;98318.47;4238648;82;21039;-83
2022/05/24 06:14:17;;;;;;;10.48;6.35;;;;;;;12.18;79.11;98308.37;4256636;82;21046;-82
2022/05/24 06:20:57;;;;;;;9.13;6.60;;;;;;;12.33;79.03;98325.72;4215379;82;21016;-82
2022/05/24 06:27:27;;;;;;;10.50;6.30;;;;;;;12.52;79.05;98329.32;4170816;84;21515;-83
2022/05/24 06:33:29;;;;;;;11.50;6.50;;;;;;;12.76;78.86;98330.91;4184594;83;21047;-84
2022/05/24 06:39:46;;;;;;;11.68;6.50;;;;;;;12.87;78.54;98331.02;4201432;83;21511;-84
2022/05/24 06:45:49;;;;;;;8.65;6.40;;;;;;;13.02;78.53;98336.59;4179384;84;21102;-84
2022/05/24 06:52:25;;;;;;;8.90;6.55;;;;;;;13.13;78.39;98330.98;4189169;84;21047;-83
2022/05/24 06:58:26;;;;;;;12.20;6.72;;;;;;;13.28;78.33;98329.06;4195033;83;21050;-83
2022/05/24 07:04:43;;;;;;;9.93;5.90;;;;;;;13.37;78.19;98323.88;4185884;83;20964;-82
2022/05/24 07:10:54;;;;;;;15.48;7.37;;;;;;;13.40;78.14;98328.56;4197751;83;21860;-83
2022/05/24 07:16:59;;;;;;;7.10;5.65;;;;;;;13.54;77.97;98335.27;4188727;84;21063;-84
2022/05/24 07:23:27;;;;;;;14.85;6.42;;;;;;;13.69;78.01;98340.78;4268724;82;21063;-85
2022/05/24 07:29:56;;;;;;;14.45;6.87;;;;;;;13.90;78.07;98332.29;4258574;82;21042;-83
2022/05/24 07:36:21;;;;;;;8.30;6.42;;;;;;;14.07;77.79;98335.41;4297408;82;20991;-83
2022/05/24 07:56:15;;;;;;;10.13;5.55;;;;;;;14.44;77.15;98342.77;4275780;82;21027;-83
2022/05/24 08:02:19;;;;;;;11.65;5.83;;;;;;;14.68;76.89;98340.84;4276729;82;21076;-84
2022/05/24 08:08:43;;;;;;;11.05;6.60;;;;;;;14.95;77.14;98341.00;4287000;82;20991;-84
2022/05/24 08:14:58;;;;;;;19.42;5.75;;;;;;;15.34;76.93;98340.31;4268096;82;21015;-82
2022/05/24 08:21:02;;;;;;;9.30;5.55;;;;;;;15.57;76.81;98344.42;4269161;82;21024;-84
2022/05/24 08:27:04;;;;;;;8.78;5.72;;;;;;;15.74;76.40;98346.68;4248513;82;21474;-86
2022/05/24 08:33:06;;;;;;;10.60;5.58;;;;;;;15.87;76.62;98348.37;4270881;82;20993;-84
2022/05/24 08:39:11;;;;;;;9.53;5.47;;;;;;;16.01;75.97;98343.15;4283025;82;21489;-84
2022/05/24 08:52:09;;;;;;;11.08;5.87;;;;;;;16.20;75.42;98343.14;4179036;84;21035;-83
2022/05/24 08:58:37;;;;;;;18.17;6.08;;;;;;;16.37;75.24;98336.44;4260085;82;21491;-83
2022/05/24 09:05:00;;;;;;;14.28;5.55;;;;;;;16.66;75.15;98337.36;4264529;82;21001;-84
2022/05/24 09:11:29;;;;;;;8.65;4.92;;;;;;;16.91;74.92;98338.17;4300285;82;20966;-83
2022/05/24 09:18:03;;;;;;;7.28;5.10;;;;;;;17.18;74.59;98329.76;4209839;82;22885;-84
2022/05/24 09:24:53;;;;;;;9.03;4.83;;;;;;;17.58;74.18;98319.84;4248266;81;20995;-84
2022/05/24 09:31:15;;;;;;;9.40;4.83;;;;;;;17.75;73.76;98322.13;4275194;82;21062;-85
2022/05/24 09:37:28;;;;;;;8.55;4.65;;;;;;;17.86;73.58;98325.37;4315200;82;21108;-84
2022/05/24 09:43:59;;;;;;;11.78;4.25;;;;;;;18.00;73.28;98334.65;4295812;82;21606;-84
2022/05/24 09:51:07;;;;;;;9.18;5.22;;;;;;;18.04;72.87;98344.25;4129298;84;21055;-81
2022/05/24 09:57:13;;;;;;;11.83;5.20;;;;;;;18.13;72.52;98347.14;4146531;82;21050;-84
2022/05/24 10:03:32;;;;;;;9.18;5.70;;;;;;;18.16;72.17;98353.97;4290932;82;20973;-85
2022/05/24 10:10:12;;;;;;;14.20;5.45;;;;;;;18.11;71.72;98348.97;4274753;82;21602;-84
2022/05/24 10:16:40;;;;;;;8.23;5.30;;;;;;;18.09;71.14;98354.16;4140864;84;21104;-84
2022/05/24 10:23:16;;;;;;;11.43;5.45;;;;;;;18.06;71.17;98350.89;4152952;83;21064;-84
2022/05/24 10:43:45;;;;;;;12.28;5.53;;;;;;;18.14;70.96;98344.53;4020595;86;21021;-84
2022/05/24 10:57:36;;;;;;;9.00;4.60;;;;;;;18.58;70.74;98350.55;4030273;84;21783;-84
2022/05/24 11:11:12;;;;;;;12.90;5.45;;;;;;;18.78;70.29;98352.47;4203396;84;21002;-84
2022/05/24 11:17:33;;;;;;;11.48;5.30;;;;;;;18.74;70.33;98351.19;4041733;86;21968;-85
2022/05/24 11:23:56;;;;;;;13.83;5.03;;;;;;;18.81;70.15;98357.76;4085962;86;21107;-84
2022/05/24 11:30:46;;;;;;;14.33;5.17;;;;;;;18.94;69.99;98349.58;4042477;86;21058;-85
2022/05/24 11:43:51;;;;;;;14.15;4.58;;;;;;;19.44;69.33;98340.39;4117158;85;21071;-85
2022/05/24 12:11:08;;;;;;;8.55;4.70;;;;;;;19.83;68.00;98318.95;4247062;83;21082;-85
2022/05/24 12:17:27;;;;;;;8.30;5.10;;;;;;;19.68;67.83;98321.49;4236692;83;21035;-85
2022/05/24 12:23:44;;;;;;;8.75;5.62;;;;;;;19.55;67.76;98313.82;4237754;82;21129;-85
2022/05/24 12:30:03;;;;;;;7.10;4.70;;;;;;;19.51;68.37;98311.02;4228124;82;20992;-84
2022/05/24 12:36:41;;;;;;;11.53;5.50;;;;;;;19.48;68.79;98307.75;4265142;82;21019;-84
2022/05/24 13:10:10;;;;;;;9.75;5.62;;;;;;;19.71;70.02;98286.48;4295491;81;21050;-85
2022/05/24 13:16:24;;;;;;;7.45;4.50;;;;;;;19.76;70.24;98288.69;4325649;81;21077;-83
2022/05/24 13:22:48;;;;;;;13.18;4.37;;;;;;;19.80;70.06;98283.16;4296383;81;21006;-86
2022/05/24 13:36:29;;;;;;;10.28;4.08;;;;;;;19.86;69.37;98285.50;4284727;82;21153;-85
2022/05/24 13:43:06;;;;;;;6.17;3.30;;;;;;;19.94;69.09;98291.56;4277458;82;21021;-86
2022/05/24 13:49:07;;;;;;;5.03;2.77;;;;;;;20.14;68.98;98292.02;4242206;82;21118;-85
2022/05/24 14:02:14;;;;;;;4.17;2.50;;;;;;;20.54;67.37;98299.78;4237776;82;20979;-86
2022/05/24 14:08:24;;;;;;;6.33;2.55;;;;;;;20.63;66.38;98301.20;4243967;82;21364;-82
2022/05/24 14:14:39;;;;;;;6.45;3.00;;;;;;;20.71;65.83;98313.59;4226411;82;21019;-85
2022/05/24 14:21:06;;;;;;;7.20;2.98;;;;;;;20.80;65.27;98306.66;4039615;86;21058;-85
2022/05/24 14:27:29;;;;;;;6.42;3.02;;;;;;;20.86;64.40;98304.81;4027783;86;21791;-84
2022/05/24 14:33:34;;;;;;;5.47;2.62;;;;;;;20.88;63.62;98303.75;4010153;88;21036;-83
2022/05/24 14:40:49;;;;;;;;;;;;;;;;;;;;;
2022/05/24 14:47:06;;;;;;;5.92;2.70;;;;;;;20.82;62.82;98312.55;3752485;92;21248;-83
2022/05/24 14:53:43;;;;;;;5.42;3.05;;;;;;;20.75;62.10;98319.77;4063687;86;21045;-84
2022/05/24 14:59:47;;;;;;;7.17;3.30;;;;;;;20.68;61.94;98324.24;4029746;86;21105;-84
2022/05/24 15:05:50;;;;;;;4.97;2.75;;;;;;;20.58;61.96;98326.81;4181248;83;21043;-84
2022/05/24 15:18:32;;;;;;;5.28;3.83;;;;;;;20.31;62.66;98326.71;4203672;83;20990;-84
2022/05/24 15:24:38;;;;;;;9.18;3.20;;;;;;;20.33;62.83;98326.25;4214348;84;21066;-84
2022/05/24 15:30:48;;;;;;;9.48;3.58;;;;;;;20.34;62.82;98329.97;4249864;82;21537;-84
2022/05/24 15:37:09;;;;;;;9.30;3.40;;;;;;;20.34;62.78;98336.92;4260338;81;21066;-84
2022/05/24 15:43:38;;;;;;;8.50;3.75;;;;;;;20.36;62.89;98346.19;4228424;82;21038;-84
2022/05/24 15:49:58;;;;;;;11.45;3.25;;;;;;;20.33;63.02;98349.25;4197916;82;21449;-84
2022/05/24 15:56:06;;;;;;;9.90;3.33;;;;;;;20.25;63.28;98354.16;4272902;82;21683;-86
2022/05/24 16:02:27;;;;;;;4.97;3.33;;;;;;;20.25;63.38;98345.81;4275458;82;21476;-85
2022/05/24 16:15:32;;;;;;;6.12;3.05;;;;;;;20.13;63.57;98347.41;4302827;82;21097;-84
2022/05/24 16:21:53;;;;;;;6.05;3.35;;;;;;;19.99;63.54;98357.05;4264547;82;21037;-84
2022/05/24 16:28:19;;;;;;;7.58;3.40;;;;;;;19.84;63.90;98362.94;4284097;82;21003;-84
2022/05/24 16:34:27;;;;;;;8.30;4.00;;;;;;;19.73;64.10;98368.73;4295238;81;21090;-84
2022/05/24 16:40:56;;;;;;;6.53;3.83;;;;;;;19.39;64.99;98381.20;4275988;82;21035;-83
2022/05/24 17:00:49;;;;;;;10.35;6.45;;;;;;;18.68;67.53;98417.37;4276652;82;20998;-83
2022/05/24 17:06:57;;;;;;;12.58;8.90;;;;;;;18.40;69.23;98419.60;4254213;82;22249;-84
2022/05/24 17:13:16;;;;;;;14.00;8.85;;;;;;;18.16;70.44;98408.58;4273663;82;21018;-83
2022/05/24 17:19:18;;;;;;;11.38;8.53;;;;;;;17.94;71.43;98416.72;4271683;82;21033;-84
2022/05/24 17:25:29;;;;;;;14.30;8.10;;;;;;;17.72;72.77;98415.73;4276328;82;20995;-84
2022/05/24 17:31:53;;;;;;;10.85;8.63;;;;;;;17.69;73.52;98419.38;4263328;82;21037;-84
2022/05/24 17:52:08;;;;;;;17.02;9.53;;;;;;;17.41;76.17;98438.66;4205486;83;21002;-83
2022/05/24 17:58:24;;;;;;;14.47;10.25;;;;;;;17.38;76.95;98457.51;4089652;83;21006;-83
2022/05/24 18:04:26;;;;;;;14.70;9.30;;;;;;;17.33;77.69;98459.41;4197216;84;21066;-83
2022/05/24 18:10:27;;;;;;;16.57;10.25;;;;;;;17.25;78.20;98468.48;4189279;84;21120;-84
2022/05/24 18:16:28;;;;;;;14.43;9.85;;;;;;;17.21;78.77;98470.56;4199222;84;21091;-83
2022/05/24 18:22:47;;;;;;;14.15;10.03;;;;;;;17.18;79.32;98472.78;4169274;83;21117;-83
2022/05/24 18:35:24;;;;;;;15.88;12.65;;;;;;;17.01;80.58;98478.91;4163740;84;21034;-83
2022/05/24 18:41:28;;;;;;;17.73;13.85;;;;;;;16.90;80.90;98490.81;4177574;84;21051;-83
2022/05/24 18:54:19;;;;;;;19.40;13.83;;;;;;;16.81;81.60;98496.16;4219332;83;21101;-83
2022/05/24 19:07:39;;;;;;;22.40;15.50;;;;;;;16.79;82.56;98506.85;4235833;84;20998;-83
2022/05/24 19:14:15;;;;;;;20.00;16.37;;;;;;;16.71;82.94;98515.11;4196788;84;20975;-83
2022/05/24 19:27:45;;;;;;;19.90;15.20;;;;;;;16.57;83.83;98527.08;4098365;85;21044;-83
2022/05/24 19:33:53;;;;;;;29.23;16.95;;;;;;;16.52;84.55;98542.77;4152092;86;21083;-82
2022/05/24 19:47:33;;;;;;;22.42;16.15;;;;;;;16.46;85.42;98565.95;4123653;85;21754;-83
2022/05/24 19:53:37;;;;;;;24.65;16.37;;;;;;;16.43;85.34;98562.63;4149600;84;21033;-83
2022/05/24 20:06:24;;;;;;;24.45;17.67;;;;;;;16.42;86.18;98579.62;4210343;84;21003;-82
2022/05/24 20:12:34;;;;;;;24.90;16.32;;;;;;;16.43;86.45;98583.94;4211377;84;21039;-83
2022/05/24 20:18:52;;;;;;;25.17;17.50;;;;;;;16.39;86.58;98585.41;4242811;84;20979;-82
2022/05/24 20:25:26;;;;;;;21.57;16.60;;;;;;;16.37;87.08;98606.35;4216129;84;21018;-83
2022/05/24 20:32:05;;;;;;;20.57;16.25;;;;;;;16.31;87.55;98613.56;4212235;83;21974;-83
2022/05/24 20:45:04;;;;;;;20.00;15.88;;;;;;;16.24;88.26;98628.90;4209830;84;21842;-83
2022/05/24 20:51:06;;;;;;;18.52;15.50;;;;;;;16.15;88.01;98632.78;4209119;83;21571;-83
2022/05/24 20:57:21;;;;;;;16.52;14.33;;;;;;;16.11;88.69;98621.81;4243983;82;21054;-83
2022/05/24 21:03:34;;;;;;;18.37;14.73;;;;;;;16.10;88.96;98617.48;4233569;82;21009;-82
2022/05/24 21:09:38;;;;;;;20.77;15.75;;;;;;;16.08;89.09;98624.04;4178855;83;21034;-82
2022/05/24 21:15:49;;;;;;;19.05;15.58;;;;;;;16.04;89.29;98631.58;4209153;82;21503;-82
2022/05/24 21:22:15;;;;;;;17.35;14.00;;;;;;;15.99;89.50;98625.77;4252668;82;21074;-81
2022/05/24 21:28:40;;;;;;;21.15;16.25;;;;;;;15.98;89.97;98632.47;4236383;82;21011;-82
2022/05/24 21:34:45;;;;;;;19.98;15.68;;;;;;;15.95;90.11;98634.11;4216598;82;20978;-82
2022/05/24 21:41:06;;;;;;;17.27;15.13;;;;;;;15.88;90.28;98628.69;4205385;85;21015;-81
2022/05/24 21:47:11;;;;;;;23.73;18.23;;;;;;;15.89;90.59;98633.02;4244803;82;21530;-82
2022/05/24 21:53:18;;;;;;;20.95;18.25;;;;;;;15.91;90.99;98625.08;4242095;82;21047;-82
2022/05/24 21:59:25;;;;;;;21.97;19.67;;;;;;;15.88;91.33;98619.02;4241639;82;21125;-82
2022/05/24 22:05:32;;;;;;;26.48;18.25;;;;;;;15.85;91.44;98625.38;4179709;82;21043;-82
2022/05/24 22:11:37;;;;;;;25.37;20.77;;;;;;;15.87;91.80;98624.96;4248846;82;21140;-82
2022/05/24 22:17:43;;;;;;;25.68;19.62;;;;;;;15.84;91.80;98619.69;4236567;82;21033;-82
2022/05/24 22:23:47;;;;;;;29.80;21.12;;;;;;;15.85;92.05;98614.96;4223356;82;21067;-82
2022/05/24 22:29:49;;;;;;;20.30;18.05;;;;;;;15.79;92.29;98609.70;4227001;82;20997;-81
2022/05/24 22:35:59;;;;;;;25.15;20.40;;;;;;;15.71;92.56;98605.53;4217448;82;21007;-82
2022/05/24 22:42:01;;;;;;;27.73;21.52;;;;;;;15.68;92.59;98608.50;4242029;81;21102;-82
2022/05/24 22:48:03;;;;;;;24.35;20.40;;;;;;;15.57;92.81;98592.13;4240479;82;21673;-82
2022/05/24 22:54:05;;;;;;;25.65;19.15;;;;;;;15.55;93.10;98589.61;4222533;82;21085;-83
2022/05/24 23:00:18;;;;;;;28.45;21.95;;;;;;;15.46;93.22;98595.63;4209576;83;21047;-82
2022/05/24 23:06:20;;;;;;;26.60;22.62;;;;;;;15.47;93.22;98601.32;4211597;82;21053;-82
2022/05/24 23:12:26;;;;;;;30.12;24.47;;;;;;;15.39;93.48;98594.96;4226182;83;21620;-82
2022/05/24 23:18:39;;;;;;;25.75;21.17;;;;;;;15.33;93.26;98599.36;4215532;82;21542;-82
2022/05/24 23:24:55;;;;;;;24.47;20.62;;;;;;;15.23;93.49;98601.06;4216919;83;21121;-82
2022/05/24 23:31:02;;;;;;;27.77;21.75;;;;;;;15.15;93.83;98591.33;4212640;83;21054;-82
2022/05/24 23:37:05;;;;;;;26.07;21.27;;;;;;;15.18;94.26;98592.46;4215603;84;21373;-82
2022/05/24 23:43:08;;;;;;;28.70;23.65;;;;;;;15.16;94.44;98595.63;4214302;83;21849;-83
2022/05/24 23:49:13;;;;;;;28.67;22.77;;;;;;;15.10;94.54;98580.75;4213043;83;21038;-82
2022/05/24 23:55:15;;;;;;;21.60;18.92;;;;;;;15.04;94.72;98583.80;4245270;81;22603;-82
